Pronóstico
Mapa Interactivo
Aviación
Climatología
Hidrometeorología
Agrometeorología
Estaciones Automáticas
Transparencia
OMM WMO
Portada
Institución
Noticias
Imágenes
Tsunami
Historial
Boletines y Alertas
Contactos
Buscar Contenidos
Informe del Tiempo

151513 MDSDYMYX
SPDR31 MDSD 151513Z
SPECI

SPECI MDCY 151513Z 00000KT 8000 -RA FEW016TCU BNK018 28/25 Q1016
TCU/N=

METAR
METAR MDPP 151500Z 08012KT 9999 BKN022 30/26 Q1016=
METAR MDST 151500Z 15008KT 9999 FEW020CB SCT022 29/24 Q1016 CB/NE=
METAR MDPC 151500Z 09010KT 9999 FEW025 28/24 Q1017 NOSIG=
METAR MDBH 151500Z 13012KT 9999 FEW020CB FEW023 30/23 Q1017 CB/SE=
METAR MDJB 151500Z 00000KT 9999 SCT018 28/24 Q1017=
METAR MDSD 151500Z 06006KT 9999 FEW018CB SCT020 29/25 Q1016 CB/SE=
METAR MDLR 151500Z 09010KT 9999 SCT020 SCT300 30/25 Q1017=
METAR MDCY 151500Z 00000KT 9999 FEW018TCU SCT020 28/25 Q1016 TCU/N=
METAR MDAB 151500Z 09006KT 9999 SCT020 29/25 Q1016=